KVOK/VOK METAR and TAF weather

Enter ICAO airport designator
Station Type Date Time Source
KVOK METAR 2019/06/17 14:56 UTC NOAA

KVOK 171456Z 14007KT 10SM FEW020 18/13 A3003 RMK AO2A SLP172 50001


Station Type Date Time Source
KVOK Decoded METAR 2019/06/17 14:56 UTC NOAA

Volk / Camp Douglas, WI, United States (KVOK) 43-56N 090-16W
Jun 17, 2019 - 10:56 AM EDT / 2019.06.17 1456 UTC
Wind: from the SE (140 degrees) at 8 MPH (7 KT):0
Visibility: 10 mile(s):0
Sky conditions: mostly clear
Temperature: 64 F (18 C)
Dew Point: 55 F (13 C)
Relative Humidity: 72%
Pressure (altimeter): 30.03 in. Hg (1016 hPa)
Pressure tendency: 0.00 inches (0.1 hPa) higher than three hours ago
ob: KVOK 171456Z 14007KT 10SM FEW020 18/13 A3003 RMK AO2A SLP172 50001
cycle: 15

Station Type Date Time Source
KVOK TAF 2019/06/17 09:09 UTC NOAA

TAF KVOK 170900Z 1709/1815 VRB06KT 9999 BKN030 QNH2998INS
BECMG 1715/1716 VRB06KT 9999 FEW030 QNH2996INS TX23/1722Z TN11/1709Z

Example: see airport list